Aeroporto :
LOGIN :

Iscrizione | Disclaimer

   EN    FR    IT 

 










Sommario :    VFR   VFR Marginale   IFR   IFR Intensivo   IFR Molto Intensivo
Visibilità : 
Base nubi : 
>= 8 km
>= 3000ft
5 / 8 km
1000 / 3000 ft
1500m / 5 km
500 / 1000 ft
800 / 1500m
200 / 500 ft
< 800m
< 200 ft
Simboli :   Temporali  Nebbia  Neve Forte  Precipitazioni Forti  Vento > 20 kt
SIGMETs :   Varie  Temporali  Ghiacco  Turbolenza  Onda orograficha  Ceneri Vulcaniche






- Altitudine del aeroporto : 26 ft
- Codice IATA : SYY


EGPO - Stornoway

ULTIMO METAR :
  • 210420Z AUTO 21007KT 9999 OVC033/// 07/02 Q1023

METARs OBSOLETI :
  • 210350Z AUTO 20005KT 9999 OVC033/// 07/02 Q1023
  • 210320Z AUTO 20005KT 170V240 9999 OVC033/// 07/02 Q1023
  • 210250Z AUTO 20004KT 9999 OVC034/// 06/02 Q1023
  • 210220Z AUTO 21005KT 9999 OVC034/// 06/02 Q1023
  • 210150Z AUTO 24003KT 9999 OVC034/// 06/03 Q1023

TAF TAF EGPO
Valido dal 21 a 03 ore il 21 a 12 ore UTC


210155Z 2103/2112 25005KT 9999 BKN035
BECMG 2109/2112 21015KT
ATIS : +44 1851 707 444



MetMap, La meteo Aeronautica in un colpo d'occhio ! - Copyright ORBIFLY Dicembre 2007 - Disclaimer

ORBIFLY MET'MAP TEAM :

Programmazione e sviluppo : Alexandra Zaïnal
Concezione e sviluppo : Baudouin d'Aumeries
Co-Programmazione e sviluppo : Marc-Olivier Méhu
Supporto tecnico e logistico : Manuel Goepfert
Aiuto per la traduzione : Arnaldo La Scala

Contatto : metmap@orbifly.com




FONTI E CREDITI :

   NOAA